Hlavní strana
METAR-TAF:

METAR-TAF

Letiště :

Svolvær, Norsko

zeměpisná šířka: 68-15N, zeměpisná délka: 014-40E, výška: 0 m

Aktuální stav počasí

Zpráva byla vytvořena před 27 minutami, v 07:20 UTC
Jihojihozápadní vítr 10 kt
Teplota 7°C
Vlhkost vzduchu 93%
Tlak 1004 hPa
Viditelnost 10 km a více
Skoro jasno ve výšce 800 ft
Oblačno až skoro zataženo ve výšce 1000 ft
slabé mrholení

METAR: ENSH 130720Z 20010KT 9999 -DZ FEW008 BKN010 07/06 Q1004 RMK WIND 150FT 21008KT 180V240

Čas: 08:47 (07:47 UTC)

Předpověď počasí

Zpráva byla vytvořena před 1 hodinou a 26 minutami, v 06:21 UTC
Předpověď platná od 13 v 06 UTC do 13 v 15 UTC
Západojihozápadní vítr 5 kt
Viditelnost: 8000 m
Oblačno až skoro zataženo ve výšce 1800 ft
slabý déšť, mrholení
Dočasný
od 13 v 06 UTC do 13 v 15 UTC
Viditelnost: 4000 m
Oblačno až skoro zataženo ve výšce 400 ft
slabý déšť, mrholení

TAF: ENSH 130621Z 1306/1315 24005KT 8000 -RADZ BKN018 TEMPO 1306/1315 4000 -RADZ BKN004

Stav a předpovědi počasí z více než 4 000 letišť (zprávy METAR a TAF).

Červené a žluté tečky na mapě představují dostupné meteorologické stanice.

Když kurzor umístíte na tečku, zobrazí se název stanice.

Pak kliknutím zobrazíte stav a předpověď počasí.

Chcete-li změnit mapu, kliknutím na zelené tlačítko se znaménkem +mapu přiblížíte, kliknutím na zelené tlačítko se znaménkem – mapu oddálíte a kliknutím na zelené šipky přejdete na sousední mapy.


METAR-TAF: